Attleboro Falls, Massachusetts
Current Conditions -  °F | °C
As of 4:15 PM on Tuesday 27 Jan 2015 (Local Time) from KSFZ Reporting Station
Overcast Overcast  
Wind Chill: -16°   Ceiling: 1500
Heat Index: -8°   Visibility: 1.7mi
Dew Point: -13°   Wind: 15mph
Humidity: 68%   Direction: 350°N
Pressure: 29.48"   Gusts: 26mph
Location:  41.97°N, 71.32°W
Report Text: KSFZ 272115Z 35013G23KT 1 3/4SM OVC015 M08/M13 A2948 RMK AO1
Loading
Personal Weather Stations






























Interactive Weather Map New forecast layout! Learn more

10-Day Weather Forecast

Advertisements
Track Severe Weather on mobile